createdAt,value
2019-05-11T00:03:49.798Z,8.13
2019-05-11T00:08:13.858Z,7.12
2019-05-11T00:12:38.055Z,7.37
2019-05-11T00:17:01.876Z,7.63
2019-05-11T00:21:25.743Z,7.37
2019-05-11T00:25:49.787Z,7.53
2019-05-11T00:30:14.160Z,8.27
2019-05-11T00:34:38.536Z,8.03
2019-05-11T00:39:02.715Z,7.37
2019-05-11T00:43:27.118Z,8.20
2019-05-11T00:47:50.939Z,8.90
2019-05-11T00:52:15.492Z,7.93
2019-05-11T00:56:39.674Z,8.10
2019-05-11T01:01:03.776Z,8.70
2019-05-11T01:05:27.635Z,8.67
2019-05-11T01:09:51.741Z,9.43
2019-05-11T01:14:15.695Z,8.50
2019-05-11T01:18:39.947Z,8.77
2019-05-11T01:23:03.830Z,9.73
2019-05-11T01:27:27.678Z,9.37
2019-05-11T01:31:51.487Z,10.00
2019-05-11T01:36:16.010Z,9.33
2019-05-11T01:40:39.880Z,8.80
2019-05-11T01:45:03.764Z,9.53
2019-05-11T01:49:27.565Z,9.47
2019-05-11T01:53:51.825Z,9.13
2019-05-11T01:58:15.830Z,9.27
2019-05-11T02:02:39.819Z,9.20
2019-05-11T02:07:03.687Z,9.13
2019-05-11T02:11:27.524Z,8.97
2019-05-11T02:15:51.731Z,9.50
2019-05-11T02:20:17.121Z,9.73
2019-05-11T02:24:40.940Z,10.40
2019-05-11T02:29:05.709Z,9.93
2019-05-11T02:33:29.662Z,8.97
2019-05-11T02:37:53.569Z,9.93
2019-05-11T02:42:17.677Z,9.85
2019-05-11T02:46:41.505Z,10.50
2019-05-11T02:51:04.433Z,9.80
2019-05-11T02:55:27.024Z,10.50
2019-05-11T02:59:49.484Z,9.27
2019-05-11T03:04:12.172Z,10.45
2019-05-11T03:08:34.589Z,9.43
2019-05-11T03:12:58.920Z,9.40
2019-05-11T03:17:27.929Z,9.63
2019-05-11T03:21:52.232Z,9.40
2019-05-11T03:26:16.334Z,9.03
2019-05-11T03:30:40.618Z,8.38
2019-05-11T03:35:06.578Z,9.18
2019-05-11T03:39:32.147Z,8.33
2019-05-11T03:43:56.220Z,9.17
2019-05-11T03:48:20.493Z,8.93
2019-05-11T03:52:44.514Z,9.00
2019-05-11T03:57:08.711Z,8.83
2019-05-11T04:01:32.728Z,10.03
2019-05-11T04:05:56.915Z,8.63
2019-05-11T04:10:24.890Z,8.30
2019-05-11T04:14:45.373Z,8.20
2019-05-11T04:19:08.441Z,7.85
2019-05-11T04:23:33.453Z,9.10
2019-05-11T04:27:58.486Z,8.17
2019-05-11T04:32:22.672Z,8.57
2019-05-11T04:36:46.573Z,10.27
2019-05-11T04:41:11.066Z,8.28
2019-05-11T04:45:34.859Z,8.03
2019-05-11T04:49:58.673Z,9.20
2019-05-11T04:54:22.770Z,8.37
2019-05-11T04:58:46.726Z,9.80
2019-05-11T05:03:10.798Z,8.43
2019-05-11T05:07:34.611Z,8.43
2019-05-11T05:11:59.889Z,8.87
2019-05-11T05:16:23.697Z,7.93
2019-05-11T05:20:47.750Z,8.33
2019-05-11T05:25:13.464Z,8.53
2019-05-11T05:29:37.364Z,9.53
2019-05-11T05:34:02.240Z,9.10
2019-05-11T05:38:26.184Z,8.63
2019-05-11T05:42:50.167Z,8.30
2019-05-11T05:47:12.807Z,9.78
2019-05-11T05:51:35.476Z,8.70
2019-05-11T05:55:58.196Z,8.20
2019-05-11T06:00:20.706Z,8.43
2019-05-11T06:04:43.142Z,8.93
2019-05-11T06:09:06.538Z,7.53
2019-05-11T06:13:44.063Z,6.60
2019-05-11T06:17:53.410Z,7.63
2019-05-11T06:22:15.831Z,7.67
2019-05-11T06:26:38.258Z,6.97
2019-05-11T06:31:03.208Z,7.03
2019-05-11T06:35:27.176Z,6.47
2019-05-11T06:39:51.923Z,6.67
2019-05-11T06:44:15.731Z,6.63
2019-05-11T06:48:39.639Z,6.53
2019-05-11T06:53:03.514Z,6.20
2019-05-11T06:57:28.548Z,5.33
2019-05-11T07:01:52.367Z,6.27
2019-05-11T07:06:17.626Z,7.33
2019-05-11T07:10:41.537Z,6.17
2019-05-11T07:15:06.349Z,5.97
2019-05-11T07:19:30.314Z,6.40
2019-05-11T07:23:54.699Z,6.37
2019-05-11T07:28:18.870Z,6.17
2019-05-11T07:32:42.918Z,6.93
2019-05-11T07:37:08.257Z,6.07
2019-05-11T07:41:32.352Z,6.33
2019-05-11T07:45:58.373Z,6.13
2019-05-11T07:50:21.897Z,6.33
2019-05-11T07:54:51.854Z,6.53
2019-05-11T07:59:10.326Z,6.50
2019-05-11T08:03:33.113Z,6.30
2019-05-11T08:07:56.130Z,5.80
2019-05-11T08:12:20.020Z,6.73
2019-05-11T08:16:42.750Z,4.83
2019-05-11T08:21:05.223Z,6.40
2019-05-11T08:25:28.806Z,6.27
2019-05-11T08:29:51.582Z,6.63
2019-05-11T08:34:14.336Z,5.60
2019-05-11T08:38:38.408Z,7.47
2019-05-11T08:43:02.605Z,6.10
2019-05-11T08:47:28.360Z,6.20
2019-05-11T08:51:51.984Z,6.00
2019-05-11T08:56:15.783Z,6.13
2019-05-11T09:00:39.930Z,5.60
2019-05-11T09:05:04.102Z,5.93
2019-05-11T09:09:28.913Z,6.07
2019-05-11T09:13:53.206Z,6.33
2019-05-11T09:18:18.779Z,6.17
2019-05-11T09:22:42.877Z,6.23
2019-05-11T09:27:07.788Z,7.10
2019-05-11T09:31:31.715Z,6.60
2019-05-11T09:35:58.120Z,5.67
2019-05-11T09:40:21.411Z,6.25
2019-05-11T09:44:45.428Z,5.57
2019-05-11T09:49:09.546Z,5.70
2019-05-11T09:53:33.351Z,6.87
2019-05-11T09:57:58.007Z,6.83
2019-05-11T10:02:21.981Z,6.40
2019-05-11T10:06:48.018Z,6.37
2019-05-11T10:11:11.740Z,5.87
2019-05-11T10:15:35.560Z,6.40
2019-05-11T10:20:00.546Z,5.97
2019-05-11T10:24:24.647Z,5.80
2019-05-11T10:28:48.530Z,6.40
2019-05-11T10:33:12.576Z,5.50
2019-05-11T10:37:35.218Z,6.07
2019-05-11T10:41:58.311Z,7.80
2019-05-11T10:46:23.446Z,6.03
2019-05-11T10:50:48.245Z,7.07
2019-05-11T10:55:12.387Z,6.40
2019-05-11T10:59:38.603Z,6.50
2019-05-11T11:04:02.037Z,6.13
2019-05-11T11:08:27.845Z,6.30
2019-05-11T11:12:52.142Z,6.37
2019-05-11T11:17:15.930Z,5.55
2019-05-11T11:21:40.261Z,5.73
2019-05-11T11:26:08.006Z,6.58
2019-05-11T11:30:31.513Z,5.90
2019-05-11T11:34:57.564Z,5.73
2019-05-11T11:39:21.049Z,5.97
2019-05-11T11:43:44.849Z,5.87
2019-05-11T11:48:09.251Z,5.77
2019-05-11T11:52:34.704Z,5.73
2019-05-11T11:56:59.590Z,5.93
2019-05-11T12:01:23.691Z,6.00
2019-05-11T12:05:48.080Z,5.57
2019-05-11T12:10:11.943Z,6.10
2019-05-11T12:14:35.747Z,5.10
2019-05-11T12:18:59.541Z,5.60
2019-05-11T12:23:23.637Z,5.37
2019-05-11T12:27:49.000Z,5.40
2019-05-11T12:32:19.196Z,5.33
2019-05-11T12:36:43.029Z,4.77
2019-05-11T12:41:08.783Z,5.27
2019-05-11T12:45:32.752Z,6.10
2019-05-11T12:49:58.498Z,5.90
2019-05-11T12:54:22.412Z,5.62
2019-05-11T12:58:46.237Z,5.03
2019-05-11T13:03:10.212Z,6.10
2019-05-11T13:07:32.999Z,5.30
2019-05-11T13:11:58.779Z,5.23
2019-05-11T13:16:22.781Z,4.70
2019-05-11T13:20:48.238Z,4.43
2019-05-11T13:25:12.565Z,4.70
2019-05-11T13:29:37.893Z,4.70
2019-05-11T13:34:01.683Z,3.50
2019-05-11T13:38:28.108Z,4.67
2019-05-11T13:42:51.921Z,3.83
2019-05-11T13:47:17.997Z,3.83
2019-05-11T13:51:41.549Z,3.70
2019-05-11T13:56:08.072Z,3.40
2019-05-11T14:00:31.691Z,3.40
2019-05-11T14:04:58.227Z,3.40
2019-05-11T14:09:21.570Z,3.12
2019-05-11T14:13:47.815Z,3.40
2019-05-11T14:18:12.168Z,3.45
2019-05-11T14:22:38.526Z,2.90
2019-05-11T14:27:01.753Z,3.33
2019-05-11T14:31:27.468Z,3.10
2019-05-11T14:35:51.029Z,3.13
2019-05-11T14:40:14.906Z,3.20
2019-05-11T14:44:38.716Z,2.90
2019-05-11T14:49:02.832Z,2.60
2019-05-11T14:53:25.369Z,2.67
2019-05-11T14:57:48.563Z,2.87
2019-05-11T15:02:28.936Z,3.20
2019-05-11T15:06:51.364Z,2.50
2019-05-11T15:11:13.793Z,2.37
2019-05-11T15:15:39.445Z,2.33
2019-05-11T15:20:03.526Z,2.73
2019-05-11T15:24:28.910Z,2.70
2019-05-11T15:28:52.731Z,2.50
2019-05-11T15:33:15.279Z,2.60
2019-05-11T15:37:38.521Z,2.30
2019-05-11T15:42:10.288Z,2.50
2019-05-11T15:46:25.452Z,2.10
2019-05-11T15:50:48.696Z,2.57
2019-05-11T15:55:11.494Z,2.50
2019-05-11T15:59:33.971Z,2.77
2019-05-11T16:03:58.291Z,2.40
2019-05-11T16:08:20.762Z,2.30
2019-05-11T16:12:42.332Z,2.63
2019-05-11T16:17:04.167Z,2.60
2019-05-11T16:21:25.724Z,2.20
2019-05-11T16:25:48.845Z,3.00
2019-05-11T16:30:10.932Z,2.90
2019-05-11T16:34:32.606Z,2.13
2019-05-11T16:38:54.199Z,2.53
2019-05-11T16:43:15.885Z,2.90
2019-05-11T16:47:39.084Z,2.87
2019-05-11T16:52:01.164Z,2.22
2019-05-11T16:56:23.022Z,2.70
2019-05-11T17:00:44.597Z,2.17
2019-05-11T17:05:07.671Z,2.80
2019-05-11T17:09:29.311Z,2.47
2019-05-11T17:13:51.253Z,2.30
2019-05-11T17:18:12.953Z,2.07
2019-05-11T17:22:34.602Z,1.80
2019-05-11T17:26:58.244Z,2.43
2019-05-11T17:31:19.546Z,2.53
2019-05-11T17:35:42.162Z,2.63
2019-05-11T17:40:03.808Z,2.40
2019-05-11T17:44:25.455Z,2.20
2019-05-11T17:48:47.277Z,2.60
2019-05-11T17:53:09.538Z,2.53
2019-05-11T17:57:31.113Z,2.20
2019-05-11T18:01:53.225Z,2.70
2019-05-11T18:06:18.450Z,2.45
2019-05-11T18:10:42.316Z,2.27
2019-05-11T18:15:08.306Z,2.75
2019-05-11T18:19:32.304Z,2.70
2019-05-11T18:23:59.916Z,2.40
2019-05-11T18:28:23.770Z,2.17
2019-05-11T18:32:48.990Z,2.73
2019-05-11T18:37:13.663Z,2.58
2019-05-11T18:41:39.050Z,2.20
2019-05-11T18:46:03.468Z,2.25
2019-05-11T18:50:30.834Z,2.77
2019-05-11T18:54:57.844Z,2.27
2019-05-11T18:59:22.987Z,2.50
2019-05-11T19:03:47.867Z,2.40
2019-05-11T19:08:09.948Z,2.47
2019-05-11T19:12:31.564Z,2.20
2019-05-11T19:16:53.204Z,2.60
2019-05-11T19:21:15.121Z,2.50
2019-05-11T19:25:37.580Z,2.70
2019-05-11T19:29:59.366Z,2.70
2019-05-11T19:34:21.483Z,2.90
2019-05-11T19:38:44.920Z,3.60
2019-05-11T19:43:09.014Z,3.20
2019-05-11T19:47:33.016Z,3.60
2019-05-11T19:51:57.789Z,3.20
2019-05-11T19:56:23.357Z,3.40
2019-05-11T20:00:48.817Z,3.30
2019-05-11T20:05:13.641Z,3.23
2019-05-11T20:09:38.714Z,3.73
2019-05-11T20:14:02.722Z,2.63
2019-05-11T20:18:28.673Z,3.10
2019-05-11T20:22:52.026Z,2.90
2019-05-11T20:27:15.864Z,2.47
2019-05-11T20:31:39.658Z,3.20
2019-05-11T20:36:03.650Z,3.53
2019-05-11T20:40:28.561Z,2.93
2019-05-11T20:44:52.529Z,3.17
2019-05-11T20:49:16.625Z,2.70
2019-05-11T20:53:40.644Z,3.03
2019-05-11T20:58:05.732Z,3.42
2019-05-11T21:02:30.474Z,3.10
2019-05-11T21:06:54.568Z,3.10
2019-05-11T21:11:18.385Z,2.87
2019-05-11T21:15:42.414Z,2.73
2019-05-11T21:20:10.004Z,2.87
2019-05-11T21:24:33.810Z,2.90
2019-05-11T21:28:58.056Z,3.13
2019-05-11T21:33:21.969Z,3.23
2019-05-11T21:37:45.782Z,3.40
2019-05-11T21:42:08.201Z,3.40
2019-05-11T21:46:30.705Z,3.00
2019-05-11T21:50:53.267Z,3.73
2019-05-11T21:55:16.130Z,2.90
2019-05-11T21:59:39.974Z,3.13
2019-05-11T22:04:03.778Z,3.27
2019-05-11T22:08:28.334Z,2.83
2019-05-11T22:12:52.184Z,3.03
2019-05-11T22:17:18.199Z,3.10
2019-05-11T22:21:41.871Z,3.23
2019-05-11T22:26:07.725Z,3.40
2019-05-11T22:30:31.485Z,3.50
2019-05-11T22:34:55.555Z,3.43
2019-05-11T22:39:20.821Z,3.43
2019-05-11T22:43:45.063Z,3.60
2019-05-11T22:48:09.140Z,3.30
2019-05-11T22:52:36.549Z,3.37
2019-05-11T22:56:58.748Z,3.40
2019-05-11T23:01:21.601Z,4.00
2019-05-11T23:05:44.004Z,4.10
2019-05-11T23:10:08.590Z,3.60
2019-05-11T23:14:31.044Z,4.13
2019-05-11T23:18:53.464Z,4.23
2019-05-11T23:23:18.146Z,3.70
2019-05-11T23:27:42.215Z,4.07
2019-05-11T23:32:08.564Z,4.15
2019-05-11T23:36:31.902Z,4.03
2019-05-11T23:40:55.722Z,4.37
2019-05-11T23:45:20.195Z,4.33
2019-05-11T23:49:45.332Z,3.77
2019-05-11T23:54:09.442Z,4.67
2019-05-11T23:58:33.718Z,4.30
